sensor_id;sensor_type;location;lat;lon;timestamp;P1;durP1;ratioP1;P2;durP2;ratioP2
23290;SDS011;11814;44.686;10.842;2023-12-20T00:00:58;35.72;;;23.20;;
23290;SDS011;11814;44.686;10.842;2023-12-20T00:03:23;40.72;;;23.83;;
23290;SDS011;11814;44.686;10.842;2023-12-20T00:05:49;37.63;;;22.38;;
23290;SDS011;11814;44.686;10.842;2023-12-20T00:08:15;35.60;;;22.20;;
23290;SDS011;11814;44.686;10.842;2023-12-20T00:10:41;38.67;;;21.95;;
23290;SDS011;11814;44.686;10.842;2023-12-20T00:13:08;38.38;;;23.30;;
23290;SDS011;11814;44.686;10.842;2023-12-20T00:15:34;38.60;;;23.30;;
23290;SDS011;11814;44.686;10.842;2023-12-20T00:17:59;38.30;;;23.05;;
23290;SDS011;11814;44.686;10.842;2023-12-20T00:20:25;33.05;;;21.42;;
23290;SDS011;11814;44.686;10.842;2023-12-20T00:22:51;37.33;;;22.13;;
23290;SDS011;11814;44.686;10.842;2023-12-20T00:25:18;35.00;;;22.65;;
23290;SDS011;11814;44.686;10.842;2023-12-20T00:27:44;39.45;;;24.33;;
23290;SDS011;11814;44.686;10.842;2023-12-20T00:30:10;44.20;;;24.83;;
23290;SDS011;11814;44.686;10.842;2023-12-20T00:32:35;39.20;;;24.75;;
23290;SDS011;11814;44.686;10.842;2023-12-20T00:35:01;38.80;;;24.50;;
23290;SDS011;11814;44.686;10.842;2023-12-20T00:37:27;43.45;;;25.58;;
23290;SDS011;11814;44.686;10.842;2023-12-20T00:39:52;47.38;;;26.52;;
23290;SDS011;11814;44.686;10.842;2023-12-20T00:42:18;52.30;;;26.70;;
23290;SDS011;11814;44.686;10.842;2023-12-20T00:44:44;47.75;;;26.20;;
23290;SDS011;11814;44.686;10.842;2023-12-20T00:47:09;44.45;;;27.73;;
23290;SDS011;11814;44.686;10.842;2023-12-20T00:49:35;42.78;;;25.88;;
23290;SDS011;11814;44.686;10.842;2023-12-20T00:52:01;38.13;;;24.75;;
23290;SDS011;11814;44.686;10.842;2023-12-20T00:54:26;39.80;;;23.98;;
23290;SDS011;11814;44.686;10.842;2023-12-20T00:56:52;39.50;;;25.25;;
23290;SDS011;11814;44.686;10.842;2023-12-20T00:59:19;40.38;;;24.23;;
23290;SDS011;11814;44.686;10.842;2023-12-20T01:01:44;37.83;;;23.67;;
23290;SDS011;11814;44.686;10.842;2023-12-20T01:04:10;38.58;;;24.10;;
23290;SDS011;11814;44.686;10.842;2023-12-20T01:06:36;41.53;;;24.27;;
23290;SDS011;11814;44.686;10.842;2023-12-20T01:09:02;40.67;;;24.33;;
23290;SDS011;11814;44.686;10.842;2023-12-20T01:11:27;37.88;;;23.38;;
23290;SDS011;11814;44.686;10.842;2023-12-20T01:13:53;43.30;;;24.27;;
23290;SDS011;11814;44.686;10.842;2023-12-20T01:16:19;42.05;;;24.35;;
23290;SDS011;11814;44.686;10.842;2023-12-20T01:18:44;38.38;;;24.27;;
23290;SDS011;11814;44.686;10.842;2023-12-20T01:21:10;37.40;;;23.73;;
23290;SDS011;11814;44.686;10.842;2023-12-20T01:23:35;37.50;;;22.85;;
23290;SDS011;11814;44.686;10.842;2023-12-20T01:26:01;43.60;;;24.55;;
23290;SDS011;11814;44.686;10.842;2023-12-20T01:28:27;40.42;;;26.05;;
23290;SDS011;11814;44.686;10.842;2023-12-20T01:30:53;41.13;;;24.85;;
23290;SDS011;11814;44.686;10.842;2023-12-20T01:33:19;43.38;;;26.85;;
23290;SDS011;11814;44.686;10.842;2023-12-20T01:35:44;44.63;;;25.27;;
23290;SDS011;11814;44.686;10.842;2023-12-20T01:38:10;38.72;;;23.75;;
23290;SDS011;11814;44.686;10.842;2023-12-20T01:40:35;41.22;;;24.15;;
23290;SDS011;11814;44.686;10.842;2023-12-20T01:43:07;44.55;;;25.52;;
23290;SDS011;11814;44.686;10.842;2023-12-20T01:45:34;38.60;;;24.92;;
23290;SDS011;11814;44.686;10.842;2023-12-20T01:48:00;40.00;;;25.52;;
23290;SDS011;11814;44.686;10.842;2023-12-20T01:50:28;41.03;;;25.25;;
23290;SDS011;11814;44.686;10.842;2023-12-20T01:52:55;37.28;;;25.77;;
23290;SDS011;11814;44.686;10.842;2023-12-20T01:55:23;37.60;;;23.77;;
23290;SDS011;11814;44.686;10.842;2023-12-20T01:57:49;40.35;;;24.35;;
23290;SDS011;11814;44.686;10.842;2023-12-20T02:00:16;40.22;;;24.85;;
23290;SDS011;11814;44.686;10.842;2023-12-20T02:02:43;35.55;;;23.40;;
23290;SDS011;11814;44.686;10.842;2023-12-20T02:05:10;39.85;;;24.17;;
23290;SDS011;11814;44.686;10.842;2023-12-20T02:07:36;43.47;;;26.35;;
23290;SDS011;11814;44.686;10.842;2023-12-20T02:10:02;37.50;;;24.80;;
23290;SDS011;11814;44.686;10.842;2023-12-20T02:12:29;35.00;;;23.58;;
23290;SDS011;11814;44.686;10.842;2023-12-20T02:14:55;40.85;;;24.77;;
23290;SDS011;11814;44.686;10.842;2023-12-20T02:17:21;40.17;;;25.13;;
23290;SDS011;11814;44.686;10.842;2023-12-20T02:19:50;37.47;;;24.27;;
23290;SDS011;11814;44.686;10.842;2023-12-20T02:22:15;39.53;;;25.17;;
23290;SDS011;11814;44.686;10.842;2023-12-20T02:24:41;41.35;;;25.75;;
23290;SDS011;11814;44.686;10.842;2023-12-20T02:27:07;38.03;;;25.08;;
23290;SDS011;11814;44.686;10.842;2023-12-20T02:29:33;35.22;;;23.60;;
23290;SDS011;11814;44.686;10.842;2023-12-20T02:31:59;41.08;;;24.77;;
23290;SDS011;11814;44.686;10.842;2023-12-20T02:34:25;37.63;;;23.85;;
23290;SDS011;11814;44.686;10.842;2023-12-20T02:36:51;37.83;;;24.23;;
23290;SDS011;11814;44.686;10.842;2023-12-20T02:39:16;34.88;;;23.40;;
23290;SDS011;11814;44.686;10.842;2023-12-20T02:41:43;35.67;;;23.75;;
23290;SDS011;11814;44.686;10.842;2023-12-20T02:44:08;37.95;;;23.60;;
23290;SDS011;11814;44.686;10.842;2023-12-20T02:46:34;32.95;;;23.70;;
23290;SDS011;11814;44.686;10.842;2023-12-20T02:49:00;39.33;;;23.70;;
23290;SDS011;11814;44.686;10.842;2023-12-20T02:51:25;37.40;;;23.38;;
23290;SDS011;11814;44.686;10.842;2023-12-20T02:53:51;37.78;;;23.50;;
23290;SDS011;11814;44.686;10.842;2023-12-20T02:56:16;34.95;;;22.35;;
23290;SDS011;11814;44.686;10.842;2023-12-20T02:58:42;32.53;;;22.13;;
23290;SDS011;11814;44.686;10.842;2023-12-20T03:01:08;35.13;;;22.08;;
23290;SDS011;11814;44.686;10.842;2023-12-20T03:03:33;31.00;;;20.67;;
23290;SDS011;11814;44.686;10.842;2023-12-20T03:05:59;35.25;;;22.08;;
23290;SDS011;11814;44.686;10.842;2023-12-20T03:08:25;32.35;;;21.38;;
23290;SDS011;11814;44.686;10.842;2023-12-20T03:10:51;34.30;;;22.52;;
23290;SDS011;11814;44.686;10.842;2023-12-20T03:13:18;32.05;;;20.38;;
23290;SDS011;11814;44.686;10.842;2023-12-20T03:15:44;32.97;;;20.63;;
23290;SDS011;11814;44.686;10.842;2023-12-20T03:18:10;37.83;;;20.83;;
23290;SDS011;11814;44.686;10.842;2023-12-20T03:20:36;35.80;;;20.42;;
23290;SDS011;11814;44.686;10.842;2023-12-20T03:23:01;33.45;;;21.60;;
23290;SDS011;11814;44.686;10.842;2023-12-20T03:25:27;29.95;;;20.25;;
23290;SDS011;11814;44.686;10.842;2023-12-20T03:27:53;29.08;;;18.95;;
23290;SDS011;11814;44.686;10.842;2023-12-20T03:30:19;32.58;;;20.65;;
23290;SDS011;11814;44.686;10.842;2023-12-20T03:32:44;29.92;;;20.00;;
23290;SDS011;11814;44.686;10.842;2023-12-20T03:35:10;29.58;;;20.50;;
23290;SDS011;11814;44.686;10.842;2023-12-20T03:37:36;27.65;;;19.30;;
23290;SDS011;11814;44.686;10.842;2023-12-20T03:40:02;29.88;;;19.60;;
23290;SDS011;11814;44.686;10.842;2023-12-20T03:42:28;30.42;;;20.08;;
23290;SDS011;11814;44.686;10.842;2023-12-20T03:44:54;29.02;;;17.58;;
23290;SDS011;11814;44.686;10.842;2023-12-20T03:47:19;28.48;;;17.30;;
23290;SDS011;11814;44.686;10.842;2023-12-20T03:49:45;26.98;;;15.98;;
23290;SDS011;11814;44.686;10.842;2023-12-20T03:52:10;23.38;;;15.65;;
23290;SDS011;11814;44.686;10.842;2023-12-20T03:54:37;22.02;;;14.48;;
23290;SDS011;11814;44.686;10.842;2023-12-20T03:57:03;24.17;;;16.30;;
23290;SDS011;11814;44.686;10.842;2023-12-20T03:59:29;25.92;;;14.45;;
23290;SDS011;11814;44.686;10.842;2023-12-20T04:01:59;22.88;;;13.27;;
23290;SDS011;11814;44.686;10.842;2023-12-20T04:04:25;17.52;;;12.15;;
23290;SDS011;11814;44.686;10.842;2023-12-20T04:06:50;20.00;;;12.20;;
23290;SDS011;11814;44.686;10.842;2023-12-20T04:09:16;20.27;;;12.23;;
23290;SDS011;11814;44.686;10.842;2023-12-20T04:11:42;19.85;;;12.45;;
23290;SDS011;11814;44.686;10.842;2023-12-20T04:14:07;20.13;;;12.93;;
23290;SDS011;11814;44.686;10.842;2023-12-20T04:16:33;21.48;;;12.88;;
23290;SDS011;11814;44.686;10.842;2023-12-20T04:18:58;18.63;;;11.98;;
23290;SDS011;11814;44.686;10.842;2023-12-20T04:21:24;15.63;;;11.32;;
23290;SDS011;11814;44.686;10.842;2023-12-20T04:23:49;19.67;;;13.05;;
23290;SDS011;11814;44.686;10.842;2023-12-20T04:26:15;23.45;;;11.48;;
23290;SDS011;11814;44.686;10.842;2023-12-20T04:28:41;15.48;;;11.25;;
23290;SDS011;11814;44.686;10.842;2023-12-20T04:31:07;15.63;;;10.93;;
23290;SDS011;11814;44.686;10.842;2023-12-20T04:33:32;17.80;;;10.70;;
23290;SDS011;11814;44.686;10.842;2023-12-20T04:35:58;18.38;;;11.77;;
23290;SDS011;11814;44.686;10.842;2023-12-20T04:38:25;18.48;;;12.07;;
23290;SDS011;11814;44.686;10.842;2023-12-20T04:40:50;20.27;;;10.48;;
23290;SDS011;11814;44.686;10.842;2023-12-20T04:43:17;14.52;;;9.65;;
23290;SDS011;11814;44.686;10.842;2023-12-20T04:45:42;14.55;;;9.95;;
23290;SDS011;11814;44.686;10.842;2023-12-20T04:48:08;14.25;;;9.77;;
23290;SDS011;11814;44.686;10.842;2023-12-20T04:50:33;14.73;;;9.38;;
23290;SDS011;11814;44.686;10.842;2023-12-20T04:52:59;19.13;;;9.82;;
23290;SDS011;11814;44.686;10.842;2023-12-20T04:55:25;13.95;;;9.98;;
23290;SDS011;11814;44.686;10.842;2023-12-20T04:57:51;20.00;;;13.20;;
23290;SDS011;11814;44.686;10.842;2023-12-20T05:00:17;19.42;;;11.85;;
23290;SDS011;11814;44.686;10.842;2023-12-20T05:02:42;17.55;;;11.25;;
23290;SDS011;11814;44.686;10.842;2023-12-20T05:05:08;19.50;;;10.90;;
23290;SDS011;11814;44.686;10.842;2023-12-20T05:07:34;16.45;;;10.25;;
23290;SDS011;11814;44.686;10.842;2023-12-20T05:09:59;15.90;;;10.48;;
23290;SDS011;11814;44.686;10.842;2023-12-20T05:12:25;17.30;;;10.45;;
23290;SDS011;11814;44.686;10.842;2023-12-20T05:14:51;19.33;;;10.38;;
23290;SDS011;11814;44.686;10.842;2023-12-20T05:17:17;16.63;;;10.10;;
23290;SDS011;11814;44.686;10.842;2023-12-20T05:19:43;19.02;;;10.15;;
23290;SDS011;11814;44.686;10.842;2023-12-20T05:22:08;15.70;;;10.50;;
23290;SDS011;11814;44.686;10.842;2023-12-20T05:24:34;19.08;;;11.18;;
23290;SDS011;11814;44.686;10.842;2023-12-20T05:27:00;20.80;;;11.27;;
23290;SDS011;11814;44.686;10.842;2023-12-20T05:29:25;20.08;;;11.63;;
23290;SDS011;11814;44.686;10.842;2023-12-20T05:31:51;16.23;;;11.05;;
23290;SDS011;11814;44.686;10.842;2023-12-20T05:34:17;19.73;;;10.55;;
23290;SDS011;11814;44.686;10.842;2023-12-20T05:36:42;18.73;;;10.65;;
23290;SDS011;11814;44.686;10.842;2023-12-20T05:39:08;21.00;;;10.52;;
23290;SDS011;11814;44.686;10.842;2023-12-20T05:41:34;17.42;;;10.73;;
23290;SDS011;11814;44.686;10.842;2023-12-20T05:43:59;18.23;;;11.52;;
23290;SDS011;11814;44.686;10.842;2023-12-20T05:46:25;16.05;;;10.13;;
23290;SDS011;11814;44.686;10.842;2023-12-20T05:48:51;15.55;;;9.90;;
23290;SDS011;11814;44.686;10.842;2023-12-20T05:51:16;18.75;;;9.95;;
23290;SDS011;11814;44.686;10.842;2023-12-20T05:53:42;15.70;;;10.30;;
23290;SDS011;11814;44.686;10.842;2023-12-20T05:56:09;18.58;;;10.75;;
23290;SDS011;11814;44.686;10.842;2023-12-20T05:58:35;17.63;;;10.55;;
23290;SDS011;11814;44.686;10.842;2023-12-20T06:01:01;18.60;;;10.15;;
23290;SDS011;11814;44.686;10.842;2023-12-20T06:03:29;19.33;;;9.77;;
23290;SDS011;11814;44.686;10.842;2023-12-20T06:05:55;14.93;;;9.82;;
23290;SDS011;11814;44.686;10.842;2023-12-20T06:08:21;15.57;;;9.80;;
23290;SDS011;11814;44.686;10.842;2023-12-20T06:10:46;16.92;;;9.57;;
23290;SDS011;11814;44.686;10.842;2023-12-20T06:13:12;16.15;;;9.88;;
23290;SDS011;11814;44.686;10.842;2023-12-20T06:15:38;11.20;;;8.25;;
23290;SDS011;11814;44.686;10.842;2023-12-20T06:18:05;15.10;;;9.35;;
23290;SDS011;11814;44.686;10.842;2023-12-20T06:20:31;15.10;;;9.55;;
23290;SDS011;11814;44.686;10.842;2023-12-20T06:22:57;17.95;;;9.52;;
23290;SDS011;11814;44.686;10.842;2023-12-20T06:25:23;16.70;;;9.35;;
23290;SDS011;11814;44.686;10.842;2023-12-20T06:27:49;14.82;;;9.25;;
23290;SDS011;11814;44.686;10.842;2023-12-20T06:30:15;13.70;;;9.38;;
23290;SDS011;11814;44.686;10.842;2023-12-20T06:32:41;17.00;;;10.02;;
23290;SDS011;11814;44.686;10.842;2023-12-20T06:35:07;41.28;;;18.80;;
23290;SDS011;11814;44.686;10.842;2023-12-20T06:37:36;18.20;;;10.85;;
23290;SDS011;11814;44.686;10.842;2023-12-20T06:40:01;17.15;;;9.65;;
23290;SDS011;11814;44.686;10.842;2023-12-20T06:42:27;12.63;;;8.85;;
23290;SDS011;11814;44.686;10.842;2023-12-20T06:44:53;19.88;;;9.45;;
23290;SDS011;11814;44.686;10.842;2023-12-20T06:47:18;15.50;;;9.10;;
23290;SDS011;11814;44.686;10.842;2023-12-20T06:49:44;14.43;;;9.38;;
23290;SDS011;11814;44.686;10.842;2023-12-20T06:52:09;22.70;;;9.15;;
23290;SDS011;11814;44.686;10.842;2023-12-20T06:54:35;14.00;;;8.77;;
23290;SDS011;11814;44.686;10.842;2023-12-20T06:57:01;24.25;;;8.27;;
23290;SDS011;11814;44.686;10.842;2023-12-20T06:59:28;17.67;;;8.85;;
23290;SDS011;11814;44.686;10.842;2023-12-20T07:01:54;13.73;;;8.82;;
23290;SDS011;11814;44.686;10.842;2023-12-20T07:04:23;17.98;;;9.50;;
23290;SDS011;11814;44.686;10.842;2023-12-20T07:06:49;18.15;;;9.38;;
23290;SDS011;11814;44.686;10.842;2023-12-20T07:09:17;18.05;;;8.80;;
23290;SDS011;11814;44.686;10.842;2023-12-20T07:11:42;19.02;;;9.20;;
23290;SDS011;11814;44.686;10.842;2023-12-20T07:14:08;17.38;;;9.65;;
23290;SDS011;11814;44.686;10.842;2023-12-20T07:16:33;19.50;;;9.75;;
23290;SDS011;11814;44.686;10.842;2023-12-20T07:19:00;25.85;;;9.10;;
23290;SDS011;11814;44.686;10.842;2023-12-20T07:21:25;21.95;;;9.23;;
23290;SDS011;11814;44.686;10.842;2023-12-20T07:23:51;16.52;;;9.27;;
23290;SDS011;11814;44.686;10.842;2023-12-20T07:26:17;17.52;;;8.90;;
23290;SDS011;11814;44.686;10.842;2023-12-20T07:28:42;30.08;;;14.60;;
23290;SDS011;11814;44.686;10.842;2023-12-20T07:31:08;17.70;;;9.40;;
23290;SDS011;11814;44.686;10.842;2023-12-20T07:33:33;14.82;;;8.95;;
23290;SDS011;11814;44.686;10.842;2023-12-20T07:35:59;17.75;;;9.45;;
23290;SDS011;11814;44.686;10.842;2023-12-20T07:38:25;13.07;;;8.57;;
23290;SDS011;11814;44.686;10.842;2023-12-20T07:40:51;16.92;;;8.95;;
23290;SDS011;11814;44.686;10.842;2023-12-20T07:43:17;17.52;;;9.05;;
23290;SDS011;11814;44.686;10.842;2023-12-20T07:45:42;13.90;;;8.40;;
23290;SDS011;11814;44.686;10.842;2023-12-20T07:48:08;15.52;;;10.38;;
23290;SDS011;11814;44.686;10.842;2023-12-20T07:50:34;18.67;;;9.30;;
23290;SDS011;11814;44.686;10.842;2023-12-20T07:52:59;13.57;;;8.63;;
23290;SDS011;11814;44.686;10.842;2023-12-20T07:55:26;17.85;;;9.02;;
23290;SDS011;11814;44.686;10.842;2023-12-20T07:57:52;19.35;;;9.20;;
23290;SDS011;11814;44.686;10.842;2023-12-20T08:00:18;17.23;;;8.82;;
23290;SDS011;11814;44.686;10.842;2023-12-20T08:02:44;19.40;;;9.68;;
23290;SDS011;11814;44.686;10.842;2023-12-20T08:05:09;17.92;;;9.88;;
23290;SDS011;11814;44.686;10.842;2023-12-20T08:07:35;18.63;;;10.00;;
23290;SDS011;11814;44.686;10.842;2023-12-20T08:10:01;12.30;;;8.80;;
23290;SDS011;11814;44.686;10.842;2023-12-20T08:12:26;22.42;;;9.60;;
23290;SDS011;11814;44.686;10.842;2023-12-20T08:14:53;22.17;;;10.30;;
23290;SDS011;11814;44.686;10.842;2023-12-20T08:17:19;14.63;;;9.20;;
23290;SDS011;11814;44.686;10.842;2023-12-20T08:19:45;19.20;;;10.93;;
23290;SDS011;11814;44.686;10.842;2023-12-20T08:22:11;19.75;;;10.95;;
23290;SDS011;11814;44.686;10.842;2023-12-20T08:24:36;18.52;;;10.88;;
23290;SDS011;11814;44.686;10.842;2023-12-20T08:27:03;18.45;;;9.80;;
23290;SDS011;11814;44.686;10.842;2023-12-20T08:29:29;17.45;;;10.55;;
23290;SDS011;11814;44.686;10.842;2023-12-20T08:31:54;21.67;;;12.13;;
23290;SDS011;11814;44.686;10.842;2023-12-20T08:34:20;26.98;;;14.07;;
23290;SDS011;11814;44.686;10.842;2023-12-20T08:36:46;27.10;;;14.90;;
23290;SDS011;11814;44.686;10.842;2023-12-20T08:39:12;22.80;;;13.32;;
23290;SDS011;11814;44.686;10.842;2023-12-20T08:41:38;22.42;;;12.45;;
23290;SDS011;11814;44.686;10.842;2023-12-20T08:44:03;22.92;;;12.05;;
23290;SDS011;11814;44.686;10.842;2023-12-20T08:46:29;29.50;;;17.13;;
23290;SDS011;11814;44.686;10.842;2023-12-20T08:48:55;27.95;;;15.20;;
23290;SDS011;11814;44.686;10.842;2023-12-20T08:51:20;25.08;;;13.82;;
23290;SDS011;11814;44.686;10.842;2023-12-20T08:53:47;19.05;;;13.60;;
23290;SDS011;11814;44.686;10.842;2023-12-20T08:56:14;22.10;;;13.98;;
23290;SDS011;11814;44.686;10.842;2023-12-20T08:58:40;26.02;;;13.80;;
23290;SDS011;11814;44.686;10.842;2023-12-20T09:01:05;22.20;;;14.20;;
23290;SDS011;11814;44.686;10.842;2023-12-20T09:03:32;20.15;;;12.43;;
23290;SDS011;11814;44.686;10.842;2023-12-20T09:05:58;22.33;;;12.70;;
23290;SDS011;11814;44.686;10.842;2023-12-20T09:08:23;21.88;;;11.98;;
23290;SDS011;11814;44.686;10.842;2023-12-20T09:10:49;17.80;;;12.23;;
23290;SDS011;11814;44.686;10.842;2023-12-20T09:13:15;18.30;;;11.82;;
23290;SDS011;11814;44.686;10.842;2023-12-20T09:15:40;28.33;;;12.70;;
23290;SDS011;11814;44.686;10.842;2023-12-20T09:18:06;21.02;;;12.77;;
23290;SDS011;11814;44.686;10.842;2023-12-20T09:20:32;18.95;;;12.20;;
23290;SDS011;11814;44.686;10.842;2023-12-20T09:22:58;23.42;;;13.32;;
23290;SDS011;11814;44.686;10.842;2023-12-20T09:25:24;23.13;;;14.70;;
23290;SDS011;11814;44.686;10.842;2023-12-20T09:27:51;22.67;;;14.65;;
23290;SDS011;11814;44.686;10.842;2023-12-20T09:30:17;20.70;;;14.45;;
23290;SDS011;11814;44.686;10.842;2023-12-20T09:32:43;22.08;;;13.63;;
23290;SDS011;11814;44.686;10.842;2023-12-20T09:35:09;23.45;;;13.27;;
23290;SDS011;11814;44.686;10.842;2023-12-20T09:37:34;30.70;;;13.93;;
23290;SDS011;11814;44.686;10.842;2023-12-20T09:40:00;22.98;;;13.90;;
23290;SDS011;11814;44.686;10.842;2023-12-20T09:42:29;23.15;;;14.40;;
23290;SDS011;11814;44.686;10.842;2023-12-20T09:45:05;22.40;;;13.95;;
23290;SDS011;11814;44.686;10.842;2023-12-20T09:47:33;23.83;;;14.63;;
23290;SDS011;11814;44.686;10.842;2023-12-20T09:50:00;23.30;;;14.10;;
23290;SDS011;11814;44.686;10.842;2023-12-20T09:52:27;23.42;;;13.70;;
23290;SDS011;11814;44.686;10.842;2023-12-20T09:54:54;23.90;;;13.88;;
23290;SDS011;11814;44.686;10.842;2023-12-20T09:57:21;24.45;;;14.45;;
23290;SDS011;11814;44.686;10.842;2023-12-20T09:59:47;22.15;;;13.35;;
23290;SDS011;11814;44.686;10.842;2023-12-20T10:02:13;24.30;;;14.88;;
23290;SDS011;11814;44.686;10.842;2023-12-20T10:04:43;21.38;;;14.82;;
23290;SDS011;11814;44.686;10.842;2023-12-20T10:07:12;24.80;;;14.85;;
23290;SDS011;11814;44.686;10.842;2023-12-20T10:09:38;21.90;;;14.93;;
23290;SDS011;11814;44.686;10.842;2023-12-20T10:12:04;22.10;;;15.20;;
23290;SDS011;11814;44.686;10.842;2023-12-20T10:14:30;33.95;;;20.98;;
23290;SDS011;11814;44.686;10.842;2023-12-20T10:17:03;32.40;;;20.88;;
23290;SDS011;11814;44.686;10.842;2023-12-20T10:19:29;35.75;;;20.30;;
23290;SDS011;11814;44.686;10.842;2023-12-20T10:21:55;31.35;;;19.48;;
23290;SDS011;11814;44.686;10.842;2023-12-20T10:24:21;32.28;;;19.50;;
23290;SDS011;11814;44.686;10.842;2023-12-20T10:26:46;31.98;;;19.73;;
23290;SDS011;11814;44.686;10.842;2023-12-20T10:29:12;27.48;;;17.08;;
23290;SDS011;11814;44.686;10.842;2023-12-20T10:31:38;26.35;;;15.73;;
23290;SDS011;11814;44.686;10.842;2023-12-20T10:34:04;24.70;;;14.63;;
23290;SDS011;11814;44.686;10.842;2023-12-20T10:36:30;26.05;;;15.18;;
23290;SDS011;11814;44.686;10.842;2023-12-20T10:38:57;26.70;;;15.57;;
23290;SDS011;11814;44.686;10.842;2023-12-20T10:41:30;27.67;;;16.13;;
23290;SDS011;11814;44.686;10.842;2023-12-20T10:46:28;30.27;;;16.85;;
23290;SDS011;11814;44.686;10.842;2023-12-20T10:48:55;27.30;;;17.55;;
23290;SDS011;11814;44.686;10.842;2023-12-20T10:51:21;29.95;;;19.45;;
23290;SDS011;11814;44.686;10.842;2023-12-20T10:53:49;32.70;;;19.67;;
23290;SDS011;11814;44.686;10.842;2023-12-20T10:56:16;28.13;;;18.52;;
23290;SDS011;11814;44.686;10.842;2023-12-20T10:58:43;29.20;;;18.88;;
23290;SDS011;11814;44.686;10.842;2023-12-20T11:01:09;34.90;;;18.08;;
23290;SDS011;11814;44.686;10.842;2023-12-20T11:03:53;27.70;;;17.23;;
23290;SDS011;11814;44.686;10.842;2023-12-20T11:09:22;27.23;;;17.50;;
23290;SDS011;11814;44.686;10.842;2023-12-20T11:12:06;27.80;;;17.02;;
23290;SDS011;11814;44.686;10.842;2023-12-20T11:17:15;28.50;;;18.30;;
23290;SDS011;11814;44.686;10.842;2023-12-20T11:20:03;28.95;;;17.55;;
23290;SDS011;11814;44.686;10.842;2023-12-20T11:22:30;25.60;;;16.98;;
23290;SDS011;11814;44.686;10.842;2023-12-20T11:25:09;25.00;;;17.70;;
23290;SDS011;11814;44.686;10.842;2023-12-20T11:27:36;27.85;;;18.58;;
23290;SDS011;11814;44.686;10.842;2023-12-20T11:30:06;27.83;;;17.60;;
23290;SDS011;11814;44.686;10.842;2023-12-20T11:32:34;25.40;;;17.08;;
23290;SDS011;11814;44.686;10.842;2023-12-20T11:35:17;33.60;;;18.27;;
23290;SDS011;11814;44.686;10.842;2023-12-20T11:37:44;29.10;;;18.35;;
23290;SDS011;11814;44.686;10.842;2023-12-20T11:40:15;27.65;;;18.85;;
23290;SDS011;11814;44.686;10.842;2023-12-20T11:42:42;25.92;;;17.45;;
23290;SDS011;11814;44.686;10.842;2023-12-20T11:45:15;33.40;;;18.52;;
23290;SDS011;11814;44.686;10.842;2023-12-20T11:47:47;28.50;;;17.73;;
23290;SDS011;11814;44.686;10.842;2023-12-20T11:50:16;30.27;;;18.17;;
23290;SDS011;11814;44.686;10.842;2023-12-20T11:52:42;26.25;;;17.77;;
23290;SDS011;11814;44.686;10.842;2023-12-20T11:55:09;27.80;;;18.35;;
23290;SDS011;11814;44.686;10.842;2023-12-20T11:57:35;26.38;;;17.08;;
23290;SDS011;11814;44.686;10.842;2023-12-20T12:00:02;30.48;;;17.67;;
23290;SDS011;11814;44.686;10.842;2023-12-20T12:02:28;26.33;;;18.15;;
23290;SDS011;11814;44.686;10.842;2023-12-20T12:04:55;27.33;;;18.02;;
23290;SDS011;11814;44.686;10.842;2023-12-20T12:07:21;24.83;;;17.52;;
23290;SDS011;11814;44.686;10.842;2023-12-20T12:09:47;33.47;;;19.67;;
23290;SDS011;11814;44.686;10.842;2023-12-20T12:12:13;27.85;;;17.20;;
23290;SDS011;11814;44.686;10.842;2023-12-20T12:14:39;27.92;;;19.00;;
23290;SDS011;11814;44.686;10.842;2023-12-20T12:17:10;27.42;;;18.02;;
23290;SDS011;11814;44.686;10.842;2023-12-20T12:19:39;27.45;;;18.50;;
23290;SDS011;11814;44.686;10.842;2023-12-20T12:22:09;27.92;;;18.55;;
23290;SDS011;11814;44.686;10.842;2023-12-20T12:24:42;30.70;;;19.17;;
23290;SDS011;11814;44.686;10.842;2023-12-20T12:27:09;30.88;;;19.80;;
23290;SDS011;11814;44.686;10.842;2023-12-20T12:29:36;37.42;;;19.48;;
23290;SDS011;11814;44.686;10.842;2023-12-20T12:32:05;28.67;;;19.38;;
23290;SDS011;11814;44.686;10.842;2023-12-20T12:34:32;28.42;;;19.88;;
23290;SDS011;11814;44.686;10.842;2023-12-20T12:36:59;27.55;;;18.88;;
23290;SDS011;11814;44.686;10.842;2023-12-20T12:39:25;28.80;;;19.92;;
23290;SDS011;11814;44.686;10.842;2023-12-20T12:41:51;29.95;;;19.17;;
23290;SDS011;11814;44.686;10.842;2023-12-20T12:44:17;33.83;;;19.55;;
23290;SDS011;11814;44.686;10.842;2023-12-20T12:46:43;33.85;;;19.60;;
23290;SDS011;11814;44.686;10.842;2023-12-20T12:49:09;29.42;;;19.60;;
23290;SDS011;11814;44.686;10.842;2023-12-20T12:51:35;33.92;;;20.05;;
23290;SDS011;11814;44.686;10.842;2023-12-20T12:54:00;29.33;;;18.30;;
23290;SDS011;11814;44.686;10.842;2023-12-20T12:56:26;34.03;;;19.13;;
23290;SDS011;11814;44.686;10.842;2023-12-20T12:58:51;26.38;;;19.17;;
23290;SDS011;11814;44.686;10.842;2023-12-20T13:01:17;31.40;;;19.88;;
23290;SDS011;11814;44.686;10.842;2023-12-20T13:03:43;27.38;;;19.70;;
23290;SDS011;11814;44.686;10.842;2023-12-20T13:06:08;28.17;;;18.48;;
23290;SDS011;11814;44.686;10.842;2023-12-20T13:08:34;26.23;;;18.45;;
23290;SDS011;11814;44.686;10.842;2023-12-20T13:11:00;27.38;;;20.08;;
23290;SDS011;11814;44.686;10.842;2023-12-20T13:13:29;30.65;;;20.55;;
23290;SDS011;11814;44.686;10.842;2023-12-20T13:15:55;27.63;;;19.42;;
23290;SDS011;11814;44.686;10.842;2023-12-20T13:18:21;30.30;;;20.55;;
23290;SDS011;11814;44.686;10.842;2023-12-20T13:20:47;30.13;;;20.15;;
23290;SDS011;11814;44.686;10.842;2023-12-20T13:23:13;29.33;;;20.60;;
23290;SDS011;11814;44.686;10.842;2023-12-20T13:25:39;34.03;;;22.92;;
23290;SDS011;11814;44.686;10.842;2023-12-20T13:28:06;34.50;;;20.90;;
23290;SDS011;11814;44.686;10.842;2023-12-20T13:30:31;36.30;;;21.65;;
23290;SDS011;11814;44.686;10.842;2023-12-20T13:32:57;30.60;;;21.30;;
23290;SDS011;11814;44.686;10.842;2023-12-20T13:35:23;33.90;;;20.27;;
23290;SDS011;11814;44.686;10.842;2023-12-20T13:37:48;34.35;;;20.95;;
23290;SDS011;11814;44.686;10.842;2023-12-20T13:40:14;34.60;;;20.73;;
23290;SDS011;11814;44.686;10.842;2023-12-20T13:42:40;34.47;;;20.35;;
23290;SDS011;11814;44.686;10.842;2023-12-20T13:45:06;34.38;;;20.35;;
23290;SDS011;11814;44.686;10.842;2023-12-20T13:47:32;29.20;;;19.63;;
23290;SDS011;11814;44.686;10.842;2023-12-20T13:49:58;31.70;;;19.92;;
23290;SDS011;11814;44.686;10.842;2023-12-20T13:52:23;31.40;;;20.25;;
23290;SDS011;11814;44.686;10.842;2023-12-20T13:54:49;28.13;;;19.70;;
23290;SDS011;11814;44.686;10.842;2023-12-20T13:57:14;30.52;;;19.08;;
23290;SDS011;11814;44.686;10.842;2023-12-20T13:59:40;28.83;;;19.92;;
23290;SDS011;11814;44.686;10.842;2023-12-20T14:02:06;31.10;;;19.98;;
23290;SDS011;11814;44.686;10.842;2023-12-20T14:04:31;30.15;;;20.70;;
23290;SDS011;11814;44.686;10.842;2023-12-20T14:06:57;30.98;;;21.02;;
23290;SDS011;11814;44.686;10.842;2023-12-20T14:09:23;31.73;;;21.38;;
23290;SDS011;11814;44.686;10.842;2023-12-20T14:11:48;32.08;;;20.98;;
23290;SDS011;11814;44.686;10.842;2023-12-20T14:14:14;34.63;;;22.45;;